Time;durP1;ratioP1;P1;durP2;ratioP2;P2;SDS_P1;SDS_P2;PMS_P1;PMS_P2;Temp;Humidity;BMP_temperature;BMP_pressure;BME280_temperature;BME280_humidity;BME280_pressure;Samples;Min_cycle;Max_cycle;Signal;HPM_P1;HPM_P2
2023/05/18 00:01:07;;;;;;;2.47;0.82;;;;;;;;;;5061268;28;20045;-69
2023/05/18 00:03:34;;;;;;;5.20;1.30;;;;;;;;;;5065814;28;20048;-69
2023/05/18 00:06:05;;;;;;;4.03;0.80;;;;;;;;;;5066799;28;20082;-69
2023/05/18 00:08:33;;;;;;;3.38;1.10;;;;;;;;;;5068107;28;20048;-70
2023/05/18 00:11:00;;;;;;;6.00;1.35;;;;;;;;;;5062285;28;20093;-69
2023/05/18 00:13:27;;;;;;;4.53;1.20;;;;;;;;;;5061609;28;20044;-69
2023/05/18 00:15:56;;;;;;;3.72;1.02;;;;;;;;;;5063504;28;20496;-69
2023/05/18 00:18:25;;;;;;;3.63;1.10;;;;;;;;;;5065039;28;20045;-69
2023/05/18 00:20:57;;;;;;;3.78;1.10;;;;;;;;;;5060311;28;20084;-69
2023/05/18 00:23:28;;;;;;;2.35;1.02;;;;;;;;;;5065358;28;20467;-69
2023/05/18 00:25:56;;;;;;;4.68;0.90;;;;;;;;;;5061149;28;20056;-69
2023/05/18 00:28:23;;;;;;;4.65;0.90;;;;;;;;;;5064571;28;20061;-69
2023/05/18 00:30:50;;;;;;;3.17;0.98;;;;;;;;;;5066780;28;20060;-69
2023/05/18 00:33:19;;;;;;;4.35;1.13;;;;;;;;;;5067997;28;20500;-69
2023/05/18 00:35:46;;;;;;;5.47;1.10;;;;;;;;;;5066056;28;20480;-69
2023/05/18 00:38:15;;;;;;;3.92;1.13;;;;;;;;;;5068053;28;20044;-69
2023/05/18 00:40:42;;;;;;;2.03;0.68;;;;;;;;;;5063959;28;20116;-69
2023/05/18 00:43:09;;;;;;;4.95;0.88;;;;;;;;;;5069247;28;20048;-69
2023/05/18 00:45:36;;;;;;;2.13;0.98;;;;;;;;;;5067399;28;20059;-69
2023/05/18 00:48:04;;;;;;;3.88;1.00;;;;;;;;;;5068162;28;20075;-69
2023/05/18 00:50:32;;;;;;;2.08;0.80;;;;;;;;;;5070058;28;20053;-69
2023/05/18 00:53:00;;;;;;;3.50;1.30;;;;;;;;;;5066587;28;20069;-69
2023/05/18 00:55:27;;;;;;;4.85;1.25;;;;;;;;;;5068876;28;20454;-69
2023/05/18 00:57:55;;;;;;;2.65;1.10;;;;;;;;;;5067685;28;20049;-69
2023/05/18 01:00:22;;;;;;;3.35;0.90;;;;;;;;;;5069828;28;20550;-70
2023/05/18 01:02:50;;;;;;;3.63;1.20;;;;;;;;;;5067644;28;20074;-69
2023/05/18 01:05:18;;;;;;;6.75;1.33;;;;;;;;;;5068498;28;20056;-69
2023/05/18 01:07:47;;;;;;;6.85;1.10;;;;;;;;;;5068085;28;20060;-70
2023/05/18 01:10:16;;;;;;;3.17;1.10;;;;;;;;;;5068664;28;20091;-69
2023/05/18 01:12:46;;;;;;;6.15;1.30;;;;;;;;;;5066619;28;20080;-69
2023/05/18 01:15:15;;;;;;;5.60;1.20;;;;;;;;;;5063949;28;20420;-69
2023/05/18 01:17:48;;;;;;;3.55;1.20;;;;;;;;;;5063972;28;20112;-69
2023/05/18 01:20:23;;;;;;;2.97;1.10;;;;;;;;;;5064146;28;20080;-69
2023/05/18 01:23:00;;;;;;;3.03;1.20;;;;;;;;;;5064920;28;20138;-69
2023/05/18 01:25:33;;;;;;;1.55;1.00;;;;;;;;;;5059758;28;20040;-69
2023/05/18 01:28:05;;;;;;;2.65;0.85;;;;;;;;;;5067246;28;20056;-69
2023/05/18 01:30:33;;;;;;;3.13;0.80;;;;;;;;;;5059220;28;20055;-69
2023/05/18 01:33:00;;;;;;;6.32;1.00;;;;;;;;;;5065815;28;20061;-69
2023/05/18 01:35:28;;;;;;;3.00;1.15;;;;;;;;;;5067906;28;20126;-69
2023/05/18 01:37:55;;;;;;;1.65;1.10;;;;;;;;;;5067444;28;20080;-70
2023/05/18 01:40:23;;;;;;;2.78;0.90;;;;;;;;;;5068162;28;20045;-69
2023/05/18 01:42:52;;;;;;;1.63;0.90;;;;;;;;;;5073099;28;20059;-69
2023/05/18 01:45:22;;;;;;;5.07;1.30;;;;;;;;;;5072003;28;20048;-69
2023/05/18 01:47:49;;;;;;;6.45;1.10;;;;;;;;;;5070820;28;20048;-69
2023/05/18 01:50:19;;;;;;;5.05;1.10;;;;;;;;;;5072747;28;20041;-69
2023/05/18 01:52:48;;;;;;;2.83;1.15;;;;;;;;;;5064951;28;20053;-69
2023/05/18 01:55:17;;;;;;;3.22;1.15;;;;;;;;;;5070795;28;20044;-69
2023/05/18 01:57:45;;;;;;;3.58;1.10;;;;;;;;;;5071376;28;20399;-69
2023/05/18 02:00:15;;;;;;;4.18;1.10;;;;;;;;;;5069995;28;20495;-69
2023/05/18 02:02:44;;;;;;;4.97;1.17;;;;;;;;;;5071093;28;20060;-69
2023/05/18 02:05:12;;;;;;;2.40;1.00;;;;;;;;;;5075468;28;20575;-70
2023/05/18 02:07:39;;;;;;;2.17;0.80;;;;;;;;;;5069662;28;20056;-69
2023/05/18 02:10:07;;;;;;;4.18;0.80;;;;;;;;;;5074825;28;20045;-70
2023/05/18 02:12:34;;;;;;;2.00;0.93;;;;;;;;;;5069601;28;20171;-69
2023/05/18 02:15:04;;;;;;;1.52;0.93;;;;;;;;;;5073079;28;20055;-69
2023/05/18 02:17:32;;;;;;;2.83;1.00;;;;;;;;;;5071747;28;20044;-69
2023/05/18 02:20:00;;;;;;;2.13;0.95;;;;;;;;;;5071058;28;20063;-69
2023/05/18 02:22:28;;;;;;;4.05;1.10;;;;;;;;;;5068834;28;20045;-70
2023/05/18 02:24:55;;;;;;;2.83;1.10;;;;;;;;;;5072464;28;20102;-69
2023/05/18 02:27:22;;;;;;;2.70;1.15;;;;;;;;;;5070722;28;20141;-69
2023/05/18 02:29:50;;;;;;;4.55;1.00;;;;;;;;;;5071316;28;20055;-69
2023/05/18 02:32:17;;;;;;;5.95;1.35;;;;;;;;;;5070391;28;20044;-69
2023/05/18 02:34:45;;;;;;;6.65;1.20;;;;;;;;;;5065625;28;20487;-69
2023/05/18 02:37:14;;;;;;;2.25;1.00;;;;;;;;;;5069639;28;20037;-69
2023/05/18 02:39:41;;;;;;;3.03;0.85;;;;;;;;;;5070942;28;20510;-69
2023/05/18 02:42:09;;;;;;;1.67;0.93;;;;;;;;;;5071190;28;20059;-69
2023/05/18 02:44:36;;;;;;;2.88;1.40;;;;;;;;;;5062747;28;20048;-69
2023/05/18 02:47:03;;;;;;;7.30;1.30;;;;;;;;;;5068021;28;20041;-70
2023/05/18 02:49:32;;;;;;;5.22;1.20;;;;;;;;;;5070746;28;20040;-69
2023/05/18 02:51:59;;;;;;;2.17;1.20;;;;;;;;;;5066457;28;20127;-69
2023/05/18 02:54:27;;;;;;;3.40;1.15;;;;;;;;;;5070099;28;20389;-70
2023/05/18 02:56:57;;;;;;;3.50;1.30;;;;;;;;;;5064363;28;20511;-69
2023/05/18 02:59:25;;;;;;;3.00;1.17;;;;;;;;;;5066854;28;20388;-70
2023/05/18 03:01:53;;;;;;;4.47;1.10;;;;;;;;;;5071462;28;20055;-70
2023/05/18 03:04:20;;;;;;;2.78;1.20;;;;;;;;;;5068229;28;20056;-69
2023/05/18 03:06:51;;;;;;;2.92;1.05;;;;;;;;;;5069223;28;20041;-70
2023/05/18 03:09:19;;;;;;;5.00;1.48;;;;;;;;;;5069923;28;20094;-69
2023/05/18 03:11:48;;;;;;;4.88;1.40;;;;;;;;;;5071625;28;20052;-69
2023/05/18 03:14:15;;;;;;;3.35;1.20;;;;;;;;;;5069512;28;20511;-70
2023/05/18 03:16:42;;;;;;;4.40;1.27;;;;;;;;;;5068057;28;20059;-69
2023/05/18 03:19:09;;;;;;;3.90;1.42;;;;;;;;;;5068028;28;20049;-69
2023/05/18 03:21:37;;;;;;;3.42;1.20;;;;;;;;;;5062780;28;21178;-70
2023/05/18 03:24:05;;;;;;;5.30;1.30;;;;;;;;;;5061220;28;20052;-69
2023/05/18 03:26:32;;;;;;;4.25;1.23;;;;;;;;;;5064357;28;20052;-69
2023/05/18 03:29:01;;;;;;;3.13;1.40;;;;;;;;;;5070416;28;20049;-69
2023/05/18 03:31:28;;;;;;;4.43;1.42;;;;;;;;;;5066479;28;20094;-69
2023/05/18 03:33:55;;;;;;;4.32;1.40;;;;;;;;;;5068859;28;20403;-69
2023/05/18 03:36:24;;;;;;;3.28;1.25;;;;;;;;;;5068462;28;20051;-69
2023/05/18 03:38:51;;;;;;;2.85;1.10;;;;;;;;;;5067125;28;20110;-69
2023/05/18 03:41:19;;;;;;;6.00;1.80;;;;;;;;;;5069237;28;20432;-70
2023/05/18 03:43:46;;;;;;;3.70;1.50;;;;;;;;;;5064704;28;20052;-69
2023/05/18 03:46:15;;;;;;;2.63;1.40;;;;;;;;;;5065579;28;20052;-70
2023/05/18 03:48:42;;;;;;;4.18;1.27;;;;;;;;;;5065263;28;20136;-69
2023/05/18 03:51:09;;;;;;;4.85;1.50;;;;;;;;;;5064740;28;20040;-69
2023/05/18 03:53:36;;;;;;;3.50;1.35;;;;;;;;;;5070044;28;20518;-69
2023/05/18 03:56:04;;;;;;;5.63;1.60;;;;;;;;;;5068750;28;20040;-69
2023/05/18 03:58:31;;;;;;;5.20;1.52;;;;;;;;;;5069470;28;20408;-69
2023/05/18 04:00:58;;;;;;;4.47;1.60;;;;;;;;;;5068092;28;20052;-69
2023/05/18 04:03:27;;;;;;;2.20;1.35;;;;;;;;;;5069350;28;20048;-69
2023/05/18 04:05:54;;;;;;;5.10;1.50;;;;;;;;;;5068486;28;20045;-69
2023/05/18 04:08:24;;;;;;;4.30;1.42;;;;;;;;;;5067130;28;20040;-69
2023/05/18 04:10:52;;;;;;;2.97;1.60;;;;;;;;;;5064627;28;20059;-69
2023/05/18 04:13:19;;;;;;;2.72;1.38;;;;;;;;;;5063422;28;20052;-69
2023/05/18 04:15:46;;;;;;;4.13;1.45;;;;;;;;;;5070098;28;20053;-69
2023/05/18 04:18:14;;;;;;;5.00;1.65;;;;;;;;;;5068872;28;20045;-69
2023/05/18 04:20:44;;;;;;;3.78;1.33;;;;;;;;;;5069419;28;20076;-70
2023/05/18 04:23:12;;;;;;;3.58;1.35;;;;;;;;;;5068262;28;20445;-69
2023/05/18 04:25:40;;;;;;;5.88;1.70;;;;;;;;;;5070113;28;20409;-69
2023/05/18 04:28:08;;;;;;;3.58;1.70;;;;;;;;;;5067514;28;20048;-70
2023/05/18 04:30:37;;;;;;;4.32;1.50;;;;;;;;;;5068846;28;20052;-70
2023/05/18 04:33:05;;;;;;;4.18;1.67;;;;;;;;;;5069682;28;20049;-69
2023/05/18 04:35:32;;;;;;;4.20;1.58;;;;;;;;;;5069810;28;20052;-69
2023/05/18 04:38:01;;;;;;;3.60;1.63;;;;;;;;;;5066955;28;20055;-69
2023/05/18 04:40:32;;;;;;;3.40;1.35;;;;;;;;;;5067584;28;20047;-69
2023/05/18 04:42:59;;;;;;;2.67;1.30;;;;;;;;;;5069776;28;20408;-69
2023/05/18 04:45:27;;;;;;;2.55;1.35;;;;;;;;;;5068594;28;20495;-70
2023/05/18 04:47:54;;;;;;;4.13;1.65;;;;;;;;;;5069898;28;20048;-70
2023/05/18 04:50:22;;;;;;;4.05;1.20;;;;;;;;;;5067646;28;20040;-69
2023/05/18 04:52:50;;;;;;;5.75;1.48;;;;;;;;;;5065002;28;20083;-69
2023/05/18 04:55:24;;;;;;;3.92;1.30;;;;;;;;;;5065154;28;20570;-69
2023/05/18 04:57:55;;;;;;;4.43;1.50;;;;;;;;;;5069232;28;20090;-69
2023/05/18 05:00:23;;;;;;;3.28;1.08;;;;;;;;;;5062830;28;20052;-69
2023/05/18 05:02:50;;;;;;;5.03;1.45;;;;;;;;;;5068131;28;20079;-69
2023/05/18 05:05:18;;;;;;;5.18;1.20;;;;;;;;;;5058565;28;20229;-69
2023/05/18 05:07:45;;;;;;;3.90;1.27;;;;;;;;;;5066817;28;20060;-70
2023/05/18 05:10:12;;;;;;;3.55;1.25;;;;;;;;;;5063215;28;20480;-69
2023/05/18 05:12:42;;;;;;;6.95;1.45;;;;;;;;;;5068150;28;20064;-69
2023/05/18 05:15:09;;;;;;;3.05;1.40;;;;;;;;;;5066991;28;20508;-69
2023/05/18 05:17:37;;;;;;;2.83;1.20;;;;;;;;;;5071370;28;20048;-70
2023/05/18 05:20:04;;;;;;;5.65;1.25;;;;;;;;;;5069812;28;20049;-69
2023/05/18 05:22:32;;;;;;;4.85;1.42;;;;;;;;;;5067869;28;20049;-69
2023/05/18 05:24:59;;;;;;;4.00;1.50;;;;;;;;;;5068404;28;20064;-70
2023/05/18 05:27:26;;;;;;;2.97;1.00;;;;;;;;;;5068435;28;20550;-69
2023/05/18 05:29:55;;;;;;;9.98;1.50;;;;;;;;;;5070529;28;20048;-70
2023/05/18 05:32:22;;;;;;;5.68;1.30;;;;;;;;;;5068853;28;20049;-67
2023/05/18 05:34:50;;;;;;;3.72;1.33;;;;;;;;;;5067900;28;20367;-68
2023/05/18 05:37:18;;;;;;;5.28;1.23;;;;;;;;;;5067794;28;20084;-68
2023/05/18 05:39:45;;;;;;;2.95;0.82;;;;;;;;;;5066501;28;20052;-68
2023/05/18 05:42:13;;;;;;;3.65;0.88;;;;;;;;;;5064203;28;20045;-68
2023/05/18 05:44:40;;;;;;;2.65;0.95;;;;;;;;;;5067528;28;20048;-67
2023/05/18 05:47:09;;;;;;;1.90;0.80;;;;;;;;;;5067056;28;20055;-67
2023/05/18 05:49:36;;;;;;;3.50;0.90;;;;;;;;;;5063822;28;20049;-67
2023/05/18 05:52:04;;;;;;;3.22;0.80;;;;;;;;;;5062305;28;20389;-67
2023/05/18 05:54:31;;;;;;;6.75;1.00;;;;;;;;;;5068456;28;20044;-68
2023/05/18 05:56:58;;;;;;;5.82;1.10;;;;;;;;;;5069468;28;20447;-67
2023/05/18 05:59:26;;;;;;;2.40;0.73;;;;;;;;;;5070978;28;20059;-68
2023/05/18 06:01:53;;;;;;;3.70;0.70;;;;;;;;;;5063271;28;20472;-68
2023/05/18 06:04:21;;;;;;;2.83;0.68;;;;;;;;;;5065679;28;20048;-69
2023/05/18 06:06:50;;;;;;;2.15;0.80;;;;;;;;;;5065932;28;20057;-68
2023/05/18 06:09:17;;;;;;;0.90;0.50;;;;;;;;;;5059981;28;20049;-67
2023/05/18 06:11:44;;;;;;;2.67;0.60;;;;;;;;;;5069752;28;20040;-69
2023/05/18 06:14:11;;;;;;;3.40;0.68;;;;;;;;;;5068552;28;20514;-68
2023/05/18 06:16:39;;;;;;;5.70;0.80;;;;;;;;;;5064859;28;20186;-68
2023/05/18 06:19:06;;;;;;;1.50;0.57;;;;;;;;;;5060706;28;20467;-67
2023/05/18 06:21:34;;;;;;;2.78;0.80;;;;;;;;;;5063215;28;20063;-66
2023/05/18 06:24:03;;;;;;;2.17;0.70;;;;;;;;;;5071161;28;20040;-68
2023/05/18 06:26:31;;;;;;;3.78;1.00;;;;;;;;;;5061728;28;20055;-67
2023/05/18 06:28:58;;;;;;;3.03;0.75;;;;;;;;;;5071039;28;20057;-69
2023/05/18 06:31:25;;;;;;;3.55;0.88;;;;;;;;;;5062731;28;20048;-67
2023/05/18 06:33:53;;;;;;;3.67;1.00;;;;;;;;;;5066563;28;20095;-67
2023/05/18 06:36:20;;;;;;;1.42;0.70;;;;;;;;;;5071108;28;20047;-68
2023/05/18 06:38:49;;;;;;;4.35;0.88;;;;;;;;;;5070335;28;20048;-69
2023/05/18 06:41:16;;;;;;;4.07;0.90;;;;;;;;;;5067167;28;20045;-70
2023/05/18 06:43:43;;;;;;;5.18;0.70;;;;;;;;;;5070416;28;20052;-69
2023/05/18 06:46:10;;;;;;;3.50;1.00;;;;;;;;;;5065708;28;20048;-67
2023/05/18 06:48:38;;;;;;;4.03;0.75;;;;;;;;;;5068254;28;20084;-69
2023/05/18 06:51:05;;;;;;;3.78;0.80;;;;;;;;;;5060316;28;20064;-66
2023/05/18 06:53:32;;;;;;;2.60;1.10;;;;;;;;;;5060050;28;20056;-67
2023/05/18 06:56:01;;;;;;;2.22;0.80;;;;;;;;;;5071196;28;20091;-68
2023/05/18 06:58:28;;;;;;;4.78;0.93;;;;;;;;;;5068226;28;20514;-68
2023/05/18 07:00:55;;;;;;;7.28;1.05;;;;;;;;;;5069092;28;20049;-69
2023/05/18 07:03:22;;;;;;;3.47;0.68;;;;;;;;;;5066231;28;20044;-68
2023/05/18 07:05:50;;;;;;;4.03;0.80;;;;;;;;;;5071800;28;20121;-68
2023/05/18 07:08:17;;;;;;;4.07;0.90;;;;;;;;;;5063818;28;20059;-68
2023/05/18 07:10:44;;;;;;;2.40;0.47;;;;;;;;;;5066808;28;20059;-68
2023/05/18 07:13:13;;;;;;;3.30;0.70;;;;;;;;;;5066576;28;20088;-68
2023/05/18 07:15:40;;;;;;;3.75;0.95;;;;;;;;;;5071072;28;20052;-68
2023/05/18 07:18:07;;;;;;;1.95;0.70;;;;;;;;;;5070690;28;20045;-68
2023/05/18 07:20:34;;;;;;;1.92;0.80;;;;;;;;;;5062149;28;20041;-69
2023/05/18 07:23:02;;;;;;;5.47;0.90;;;;;;;;;;5061465;28;20049;-69
2023/05/18 07:25:29;;;;;;;3.88;1.00;;;;;;;;;;5067222;28;20480;-69
2023/05/18 07:27:56;;;;;;;2.58;0.90;;;;;;;;;;5068342;28;20048;-68
2023/05/18 07:30:26;;;;;;;4.05;0.90;;;;;;;;;;5063672;28;20058;-68
2023/05/18 07:32:53;;;;;;;4.88;0.77;;;;;;;;;;5061360;28;20080;-69
2023/05/18 07:35:20;;;;;;;1.98;0.70;;;;;;;;;;5064412;28;20060;-68
2023/05/18 07:37:48;;;;;;;2.95;0.77;;;;;;;;;;5065584;28;20048;-68
2023/05/18 07:40:15;;;;;;;1.15;0.70;;;;;;;;;;5069831;28;20113;-68
2023/05/18 07:42:43;;;;;;;3.33;0.63;;;;;;;;;;5069118;28;20518;-68
2023/05/18 07:45:11;;;;;;;2.95;0.80;;;;;;;;;;5070854;28;20055;-68
2023/05/18 07:47:39;;;;;;;6.90;0.77;;;;;;;;;;5067638;28;20052;-69
2023/05/18 07:50:07;;;;;;;1.85;0.73;;;;;;;;;;5069843;28;20044;-69
2023/05/18 07:52:34;;;;;;;2.85;1.08;;;;;;;;;;5061819;28;20045;-68
2023/05/18 07:55:02;;;;;;;3.50;0.70;;;;;;;;;;5065038;28;20044;-68
2023/05/18 07:57:29;;;;;;;3.10;0.82;;;;;;;;;;5066091;28;20053;-68
2023/05/18 07:59:57;;;;;;;1.48;0.70;;;;;;;;;;5067879;28;20060;-68
2023/05/18 08:02:24;;;;;;;0.90;0.60;;;;;;;;;;5064258;28;20053;-67
2023/05/18 08:04:53;;;;;;;1.90;0.63;;;;;;;;;;5066607;28;20063;-69
2023/05/18 08:07:20;;;;;;;4.38;0.90;;;;;;;;;;5069286;28;20067;-68
2023/05/18 08:09:47;;;;;;;3.63;0.77;;;;;;;;;;5069413;28;20047;-68
2023/05/18 08:12:14;;;;;;;2.85;0.70;;;;;;;;;;5058925;28;20041;-68
2023/05/18 08:14:42;;;;;;;3.25;0.80;;;;;;;;;;5066029;28;20056;-67
2023/05/18 08:17:09;;;;;;;3.42;0.80;;;;;;;;;;5064546;28;20055;-67
2023/05/18 08:19:37;;;;;;;1.45;0.60;;;;;;;;;;5063425;28;20055;-67
2023/05/18 08:22:05;;;;;;;4.25;0.68;;;;;;;;;;5059156;28;20068;-66
2023/05/18 08:24:34;;;;;;;2.15;0.80;;;;;;;;;;5063831;28;20045;-68
2023/05/18 08:27:02;;;;;;;4.70;0.95;;;;;;;;;;5065589;28;20048;-67
2023/05/18 08:29:29;;;;;;;3.45;0.88;;;;;;;;;;5068566;28;20394;-68
2023/05/18 08:31:56;;;;;;;3.85;0.93;;;;;;;;;;5069486;28;20514;-68
2023/05/18 08:34:24;;;;;;;5.78;0.93;;;;;;;;;;5068906;28;20064;-68
2023/05/18 08:36:51;;;;;;;4.85;1.10;;;;;;;;;;5068301;28;20048;-65
2023/05/18 08:39:21;;;;;;;1.50;0.60;;;;;;;;;;5067693;28;20056;-67
2023/05/18 08:41:51;;;;;;;2.15;0.80;;;;;;;;;;5069104;28;20048;-68
2023/05/18 08:44:21;;;;;;;6.57;0.82;;;;;;;;;;5070845;28;20063;-66
2023/05/18 08:46:50;;;;;;;3.95;1.00;;;;;;;;;;5069893;28;20408;-67
2023/05/18 08:49:19;;;;;;;5.05;0.80;;;;;;;;;;5069623;28;20045;-67
2023/05/18 08:51:46;;;;;;;4.10;0.90;;;;;;;;;;5068419;28;20122;-68
2023/05/18 08:54:16;;;;;;;1.45;0.60;;;;;;;;;;5065835;28;20131;-68
2023/05/18 08:56:45;;;;;;;1.42;0.70;;;;;;;;;;5068353;28;20052;-68
2023/05/18 08:59:13;;;;;;;1.58;0.70;;;;;;;;;;5064048;28;20041;-67
2023/05/18 09:01:40;;;;;;;2.83;1.10;;;;;;;;;;5070436;28;20500;-67
2023/05/18 09:04:08;;;;;;;4.55;1.08;;;;;;;;;;5065962;28;20111;-67
2023/05/18 09:06:35;;;;;;;2.15;0.70;;;;;;;;;;5063590;28;20051;-67
2023/05/18 09:09:05;;;;;;;1.25;0.75;;;;;;;;;;5066969;28;20041;-67
2023/05/18 09:11:33;;;;;;;3.50;0.98;;;;;;;;;;5062376;28;20056;-66
2023/05/18 09:14:01;;;;;;;1.60;0.85;;;;;;;;;;5065375;28;20056;-67
2023/05/18 09:16:29;;;;;;;4.95;0.95;;;;;;;;;;5066613;28;20075;-68
2023/05/18 09:18:57;;;;;;;3.03;0.73;;;;;;;;;;5068039;28;20103;-68
2023/05/18 09:21:25;;;;;;;2.42;0.80;;;;;;;;;;5066971;28;20084;-68
2023/05/18 09:23:52;;;;;;;2.13;0.80;;;;;;;;;;5068363;28;20079;-68
2023/05/18 09:26:20;;;;;;;2.00;0.80;;;;;;;;;;5059414;28;20048;-68
2023/05/18 09:28:50;;;;;;;2.55;0.93;;;;;;;;;;5056003;28;20053;-68
2023/05/18 09:31:19;;;;;;;1.80;0.73;;;;;;;;;;5066050;28;20053;-68
2023/05/18 09:33:47;;;;;;;2.05;0.70;;;;;;;;;;5055776;28;20088;-68
2023/05/18 09:36:15;;;;;;;5.15;1.00;;;;;;;;;;5058294;28;20051;-68
2023/05/18 09:38:44;;;;;;;3.80;1.10;;;;;;;;;;5058110;28;20499;-68
2023/05/18 09:41:12;;;;;;;4.55;1.13;;;;;;;;;;5058708;28;20093;-69
2023/05/18 09:43:40;;;;;;;2.20;0.93;;;;;;;;;;5061177;28;20052;-68
2023/05/18 09:46:08;;;;;;;2.75;1.05;;;;;;;;;;5060212;28;20044;-68
2023/05/18 09:48:37;;;;;;;3.13;0.85;;;;;;;;;;5056138;28;20132;-68
2023/05/18 09:51:05;;;;;;;3.03;1.05;;;;;;;;;;5058689;28;20060;-67
2023/05/18 09:53:36;;;;;;;4.28;0.82;;;;;;;;;;5056073;28;20049;-68
2023/05/18 09:56:05;;;;;;;3.53;1.10;;;;;;;;;;5059038;28;20448;-68
2023/05/18 09:58:33;;;;;;;2.70;0.82;;;;;;;;;;5061795;28;20052;-68
2023/05/18 10:01:01;;;;;;;3.13;0.90;;;;;;;;;;5062854;28;20496;-68
2023/05/18 10:03:32;;;;;;;3.75;1.20;;;;;;;;;;5057940;28;20045;-68
2023/05/18 10:06:03;;;;;;;4.63;0.90;;;;;;;;;;5058962;28;20573;-68
2023/05/18 10:08:31;;;;;;;2.78;0.98;;;;;;;;;;5058639;28;20059;-67
2023/05/18 10:10:58;;;;;;;4.00;0.90;;;;;;;;;;5066215;28;20041;-69
2023/05/18 10:13:26;;;;;;;7.30;1.10;;;;;;;;;;5062592;28;20052;-68
2023/05/18 10:15:55;;;;;;;4.63;0.90;;;;;;;;;;5062086;28;20045;-69
2023/05/18 10:18:23;;;;;;;1.75;0.93;;;;;;;;;;5061836;28;20044;-68
2023/05/18 10:20:51;;;;;;;3.20;1.00;;;;;;;;;;5065536;28;20048;-68
2023/05/18 10:23:20;;;;;;;2.63;0.88;;;;;;;;;;5068206;28;20053;-68
2023/05/18 10:25:48;;;;;;;4.70;1.08;;;;;;;;;;5069333;28;20071;-68
2023/05/18 10:28:23;;;;;;;3.78;0.80;;;;;;;;;;5067433;28;20045;-68
2023/05/18 10:30:52;;;;;;;5.50;1.00;;;;;;;;;;5067343;28;20060;-69
2023/05/18 10:33:19;;;;;;;3.55;0.90;;;;;;;;;;5065179;28;20049;-69
2023/05/18 10:35:48;;;;;;;3.17;0.85;;;;;;;;;;5060495;28;20054;-69
2023/05/18 10:38:17;;;;;;;2.72;0.90;;;;;;;;;;5064716;28;20045;-68
2023/05/18 10:40:47;;;;;;;3.20;1.08;;;;;;;;;;5065171;28;20436;-68
2023/05/18 10:43:16;;;;;;;3.95;1.05;;;;;;;;;;5065621;28;20404;-68
2023/05/18 10:45:44;;;;;;;2.33;0.80;;;;;;;;;;5069462;28;20665;-68
2023/05/18 10:48:12;;;;;;;2.15;0.90;;;;;;;;;;5069135;28;20045;-69
2023/05/18 10:50:40;;;;;;;3.65;1.00;;;;;;;;;;5068166;28;20075;-68
2023/05/18 10:53:10;;;;;;;2.35;0.80;;;;;;;;;;5066211;28;20127;-69
2023/05/18 10:55:37;;;;;;;2.78;1.00;;;;;;;;;;5063333;28;20511;-69
2023/05/18 10:58:09;;;;;;;1.92;0.80;;;;;;;;;;5066738;28;20044;-68
2023/05/18 11:00:37;;;;;;;4.82;1.08;;;;;;;;;;5068111;28;20048;-69
2023/05/18 11:03:08;;;;;;;4.15;1.13;;;;;;;;;;5065913;28;20132;-69
2023/05/18 11:05:35;;;;;;;3.78;0.93;;;;;;;;;;5068026;28;20060;-69
2023/05/18 11:08:04;;;;;;;2.63;1.00;;;;;;;;;;5065800;28;20482;-68
2023/05/18 11:10:35;;;;;;;1.65;0.82;;;;;;;;;;5068352;28;20040;-68
2023/05/18 11:13:02;;;;;;;2.80;0.90;;;;;;;;;;5064758;28;20106;-68
2023/05/18 11:15:48;;;;;;;4.65;1.00;;;;;;;;;;5064748;28;20041;-68
2023/05/18 11:18:17;;;;;;;2.83;0.93;;;;;;;;;;5067800;28;20131;-68
2023/05/18 11:20:45;;;;;;;5.18;1.15;;;;;;;;;;5070378;28;20522;-68
2023/05/18 11:23:13;;;;;;;2.72;1.15;;;;;;;;;;5069565;28;20099;-68
2023/05/18 11:25:43;;;;;;;4.53;1.00;;;;;;;;;;5072216;28;20059;-68
2023/05/18 11:28:12;;;;;;;2.50;1.08;;;;;;;;;;5068666;28;20049;-68
2023/05/18 11:30:49;;;;;;;2.88;0.80;;;;;;;;;;5070287;28;20067;-68
2023/05/18 11:33:22;;;;;;;2.80;1.10;;;;;;;;;;5064375;28;20138;-68
2023/05/18 11:35:56;;;;;;;2.20;0.70;;;;;;;;;;5067029;28;20407;-68
2023/05/18 11:38:23;;;;;;;2.65;0.90;;;;;;;;;;5065429;28;20045;-68
2023/05/18 11:40:51;;;;;;;3.05;1.17;;;;;;;;;;5069310;28;20048;-69
2023/05/18 11:43:20;;;;;;;3.33;0.90;;;;;;;;;;5069322;28;20469;-68
2023/05/18 11:45:57;;;;;;;3.20;1.20;;;;;;;;;;5066878;28;20052;-68
2023/05/18 11:48:28;;;;;;;2.53;1.10;;;;;;;;;;5069974;28;20053;-67
2023/05/18 11:50:55;;;;;;;4.00;1.08;;;;;;;;;;5069878;28;20132;-68
2023/05/18 11:53:24;;;;;;;4.53;1.10;;;;;;;;;;5069195;28;20054;-69
2023/05/18 11:55:53;;;;;;;3.33;1.20;;;;;;;;;;5069567;28;20079;-69
2023/05/18 11:58:20;;;;;;;3.55;1.17;;;;;;;;;;5066515;28;20067;-67
2023/05/18 12:00:49;;;;;;;1.67;1.10;;;;;;;;;;5068648;28;20452;-69
2023/05/18 12:03:16;;;;;;;7.43;1.25;;;;;;;;;;5067802;28;20055;-69
2023/05/18 12:05:48;;;;;;;3.20;1.10;;;;;;;;;;5064361;28;20059;-69
2023/05/18 12:08:16;;;;;;;2.00;0.90;;;;;;;;;;5067739;28;20509;-69
2023/05/18 12:10:45;;;;;;;3.30;1.05;;;;;;;;;;5064525;28;20055;-68
2023/05/18 12:13:13;;;;;;;4.63;1.20;;;;;;;;;;5061992;28;20049;-69
2023/05/18 12:15:40;;;;;;;3.55;1.08;;;;;;;;;;5062529;28;20137;-69
2023/05/18 12:18:07;;;;;;;3.83;0.93;;;;;;;;;;5066936;28;20105;-68
2023/05/18 12:20:35;;;;;;;3.33;1.08;;;;;;;;;;5066637;28;20040;-68
2023/05/18 12:23:04;;;;;;;4.25;1.20;;;;;;;;;;5060836;28;20044;-68
2023/05/18 12:25:31;;;;;;;2.47;1.13;;;;;;;;;;5059200;28;20153;-69
2023/05/18 12:27:58;;;;;;;3.08;1.02;;;;;;;;;;5060949;28;20056;-68
2023/05/18 12:30:33;;;;;;;2.55;1.00;;;;;;;;;;5067488;28;20049;-68
2023/05/18 12:33:02;;;;;;;3.03;1.05;;;;;;;;;;5063231;28;20049;-68
2023/05/18 12:35:30;;;;;;;5.75;1.20;;;;;;;;;;5068919;28;20090;-68
2023/05/18 12:37:59;;;;;;;2.25;0.98;;;;;;;;;;5067362;28;20052;-68
2023/05/18 12:40:28;;;;;;;3.08;1.02;;;;;;;;;;5064370;28;20123;-68
2023/05/18 12:42:55;;;;;;;1.98;1.17;;;;;;;;;;5065911;28;20127;-68
2023/05/18 12:45:23;;;;;;;3.67;1.45;;;;;;;;;;5068962;28;20127;-68
2023/05/18 12:47:53;;;;;;;2.22;1.20;;;;;;;;;;5065940;28;20049;-68
2023/05/18 12:50:20;;;;;;;3.05;1.33;;;;;;;;;;5065252;28;20135;-68
2023/05/18 12:52:48;;;;;;;4.13;1.23;;;;;;;;;;5060507;28;20037;-69
2023/05/18 12:55:20;;;;;;;4.03;1.15;;;;;;;;;;5067144;28;20143;-68
2023/05/18 12:57:58;;;;;;;4.93;1.27;;;;;;;;;;5059556;28;20404;-67
2023/05/18 13:00:25;;;;;;;6.65;1.52;;;;;;;;;;5061588;28;20036;-68
2023/05/18 13:02:53;;;;;;;5.88;1.20;;;;;;;;;;5062277;28;20491;-68
2023/05/18 13:05:24;;;;;;;4.97;1.20;;;;;;;;;;5064396;28;20130;-68
2023/05/18 13:07:51;;;;;;;3.78;1.30;;;;;;;;;;5064605;28;20067;-68
2023/05/18 13:10:19;;;;;;;4.22;1.40;;;;;;;;;;5067972;28;20040;-68
2023/05/18 13:12:47;;;;;;;3.17;1.20;;;;;;;;;;5066459;28;20040;-69
2023/05/18 13:15:17;;;;;;;4.38;1.40;;;;;;;;;;5068146;28;20420;-68
2023/05/18 13:17:59;;;;;;;3.92;1.40;;;;;;;;;;5066976;28;20403;-69
2023/05/18 13:20:33;;;;;;;6.28;1.65;;;;;;;;;;5064181;28;20083;-68
2023/05/18 13:23:00;;;;;;;6.30;1.20;;;;;;;;;;5063808;28;20489;-68
2023/05/18 13:25:27;;;;;;;3.92;1.45;;;;;;;;;;5066247;28;20519;-68
2023/05/18 13:27:55;;;;;;;3.50;1.13;;;;;;;;;;5064568;28;20069;-68
2023/05/18 13:30:24;;;;;;;6.45;1.20;;;;;;;;;;5064194;28;20041;-68
2023/05/18 13:32:52;;;;;;;6.30;1.60;;;;;;;;;;5067166;28;20060;-69
2023/05/18 13:35:19;;;;;;;4.38;1.30;;;;;;;;;;5066791;28;20092;-68
2023/05/18 13:37:47;;;;;;;2.58;1.17;;;;;;;;;;5067648;28;20059;-68
2023/05/18 13:40:15;;;;;;;5.03;1.30;;;;;;;;;;5071809;28;20215;-68
2023/05/18 13:42:42;;;;;;;3.55;1.42;;;;;;;;;;5068895;28;20059;-68
2023/05/18 13:45:10;;;;;;;5.05;1.40;;;;;;;;;;5073695;28;20145;-68
2023/05/18 13:47:39;;;;;;;3.92;1.20;;;;;;;;;;5065847;28;20048;-69
2023/05/18 13:50:06;;;;;;;3.58;1.40;;;;;;;;;;5067563;28;20476;-68
2023/05/18 13:52:34;;;;;;;5.50;1.02;;;;;;;;;;5061143;28;20056;-68
2023/05/18 13:55:01;;;;;;;2.00;1.15;;;;;;;;;;5070186;28;20071;-68
2023/05/18 13:57:29;;;;;;;2.85;1.30;;;;;;;;;;5068581;28;20059;-68
2023/05/18 13:59:57;;;;;;;3.83;1.67;;;;;;;;;;5070394;28;20078;-69
2023/05/18 14:02:24;;;;;;;2.28;1.23;;;;;;;;;;5070600;28;20102;-71
2023/05/18 14:04:53;;;;;;;10.00;1.50;;;;;;;;;;5067475;28;20444;-71
2023/05/18 14:07:20;;;;;;;2.92;1.17;;;;;;;;;;5069525;28;20048;-72
2023/05/18 14:09:48;;;;;;;3.92;1.20;;;;;;;;;;5070762;28;20056;-72
2023/05/18 14:12:15;;;;;;;3.80;1.33;;;;;;;;;;5070670;28;20097;-72
2023/05/18 14:14:42;;;;;;;2.60;1.30;;;;;;;;;;5071793;28;20450;-72
2023/05/18 14:17:11;;;;;;;3.92;1.17;;;;;;;;;;5069983;28;20087;-72
2023/05/18 14:19:38;;;;;;;4.53;1.30;;;;;;;;;;5070127;28;20052;-72
2023/05/18 14:22:07;;;;;;;3.97;1.20;;;;;;;;;;5064079;28;20064;-72
2023/05/18 14:24:34;;;;;;;6.18;1.90;;;;;;;;;;5066825;28;20491;-72
2023/05/18 14:27:01;;;;;;;4.35;1.40;;;;;;;;;;5064747;28;20131;-72
2023/05/18 14:29:29;;;;;;;2.45;1.63;;;;;;;;;;5069873;28;20123;-72
2023/05/18 14:31:56;;;;;;;4.78;1.77;;;;;;;;;;5069446;28;20214;-72
2023/05/18 14:34:23;;;;;;;5.10;1.73;;;;;;;;;;5067532;28;20049;-72
2023/05/18 14:36:51;;;;;;;5.03;1.52;;;;;;;;;;5070618;28;20046;-72
2023/05/18 14:39:19;;;;;;;3.67;1.48;;;;;;;;;;5071546;28;20484;-72
2023/05/18 14:41:47;;;;;;;6.03;1.70;;;;;;;;;;5070503;28;20048;-72
2023/05/18 14:44:14;;;;;;;4.57;2.00;;;;;;;;;;5070125;28;20064;-72
2023/05/18 14:46:41;;;;;;;3.72;1.60;;;;;;;;;;5070863;28;20052;-72
2023/05/18 14:49:09;;;;;;;4.90;2.03;;;;;;;;;;5072023;28;20050;-72